createdAt,value
2022-08-19T00:02:28.202Z,99825.41
2022-08-19T00:05:31.577Z,99819.16
2022-08-19T00:08:34.155Z,99821.88
2022-08-19T00:11:38.510Z,99824.28
2022-08-19T00:14:41.866Z,99826.19
2022-08-19T00:17:45.547Z,99821.22
2022-08-19T00:20:48.074Z,99825.53
2022-08-19T00:23:51.362Z,99817.69
2022-08-19T00:26:53.820Z,99827.19
2022-08-19T00:29:59.911Z,99823.09
2022-08-19T00:33:02.339Z,99824.19
2022-08-19T00:36:08.222Z,99822.28
2022-08-19T00:39:11.399Z,99831.53
2022-08-19T00:42:15.816Z,99823.16
2022-08-19T00:45:21.917Z,99828.91
2022-08-19T00:48:24.650Z,99820.78
2022-08-19T00:51:30.604Z,99833.81
2022-08-19T00:54:34.162Z,99824.31
2022-08-19T00:57:40.779Z,99809.66
2022-08-19T01:00:44.365Z,99803.97
2022-08-19T01:03:57.485Z,99812.09
2022-08-19T01:07:03.395Z,99811.56
2022-08-19T01:10:15.575Z,99806.94
2022-08-19T01:13:26.300Z,99803.44
2022-08-19T01:16:30.856Z,99809.94
2022-08-19T01:19:44.253Z,99823.53
2022-08-19T01:22:57.512Z,99820.00
2022-08-19T01:26:00.296Z,99812.13
2022-08-19T01:29:05.313Z,99807.00
2022-08-19T01:32:33.288Z,99801.81
2022-08-19T01:35:38.012Z,99808.56
2022-08-19T01:38:44.344Z,99814.81
2022-08-19T01:41:49.130Z,99807.81
2022-08-19T01:44:51.915Z,99796.97
2022-08-19T01:48:01.482Z,99799.41
2022-08-19T01:51:06.788Z,99787.22
2022-08-19T01:54:12.467Z,99787.47
2022-08-19T01:57:15.746Z,99789.38
2022-08-19T02:00:20.898Z,99783.16
2022-08-19T02:03:24.147Z,99772.59
2022-08-19T02:06:26.917Z,99778.28
2022-08-19T02:09:32.166Z,99776.91
2022-08-19T02:12:35.054Z,99777.97
2022-08-19T02:15:40.713Z,99766.88
2022-08-19T02:18:43.183Z,99771.22
2022-08-19T02:21:46.071Z,99762.53
2022-08-19T02:24:48.945Z,99769.84
2022-08-19T02:27:51.817Z,99778.22
2022-08-19T02:30:54.392Z,99764.97
2022-08-19T02:33:57.872Z,99758.97
2022-08-19T02:37:03.646Z,99758.47
2022-08-19T02:40:12.558Z,99763.06
2022-08-19T02:43:15.395Z,99772.81
2022-08-19T02:46:22.562Z,99771.44
2022-08-19T02:49:25.204Z,99775.50
2022-08-19T02:52:30.579Z,99773.56
2022-08-19T02:55:33.152Z,99777.34
2022-08-19T02:58:49.687Z,99785.69
2022-08-19T03:01:53.237Z,99796.03
2022-08-19T03:04:56.197Z,99801.91
2022-08-19T03:07:58.721Z,99809.78
2022-08-19T03:11:01.580Z,99803.00
2022-08-19T03:14:05.521Z,99800.28
2022-08-19T03:17:09.011Z,99803.25
2022-08-19T03:20:11.770Z,99820.03
2022-08-19T03:23:16.276Z,99819.22
2022-08-19T03:26:18.754Z,99819.19
2022-08-19T03:29:30.312Z,99816.75
2022-08-19T03:32:33.557Z,99825.63
2022-08-19T03:35:40.133Z,99828.03
2022-08-19T03:38:49.370Z,99823.13
2022-08-19T03:42:32.808Z,99824.81
2022-08-19T03:45:26.250Z,99828.88
2022-08-19T03:48:32.783Z,99832.91
2022-08-19T03:51:38.657Z,99835.06
2022-08-19T03:54:41.425Z,99831.31
2022-08-19T03:57:43.980Z,99832.13
2022-08-19T04:00:46.890Z,99829.44
2022-08-19T04:03:50.269Z,99840.25
2022-08-19T04:06:53.903Z,99841.03
2022-08-19T04:09:56.881Z,99837.28
2022-08-19T04:12:59.454Z,99843.50
2022-08-19T04:16:02.458Z,99852.75
2022-08-19T04:19:07.533Z,99857.59
2022-08-19T04:22:12.198Z,99861.41
2022-08-19T04:25:14.771Z,99871.97
2022-08-19T04:28:17.713Z,99867.12
2022-08-19T04:31:27.744Z,99866.03
2022-08-19T04:34:30.982Z,99866.03
2022-08-19T04:37:35.002Z,99855.50
2022-08-19T04:41:01.747Z,99859.31
2022-08-19T04:44:04.798Z,99872.84
2022-08-19T04:47:11.434Z,99862.53
2022-08-19T04:50:14.842Z,99874.72
2022-08-19T04:53:21.368Z,99885.09
2022-08-19T04:56:27.211Z,99874.00
2022-08-19T04:59:30.107Z,99871.50
2022-08-19T05:02:33.157Z,99870.22
2022-08-19T05:05:44.889Z,99866.44
2022-08-19T05:08:48.442Z,99871.09
2022-08-19T05:11:54.888Z,99876.25
2022-08-19T05:14:58.782Z,99877.34
2022-08-19T05:18:20.026Z,99866.00
2022-08-19T05:21:42.635Z,99866.03
2022-08-19T05:25:09.401Z,99869.28
2022-08-19T05:28:08.073Z,99876.09
2022-08-19T05:31:11.343Z,99880.47
2022-08-19T05:34:20.322Z,99872.06
2022-08-19T05:37:23.484Z,99868.56
2022-08-19T05:40:25.950Z,99866.66
2022-08-19T05:43:29.704Z,99876.97
2022-08-19T05:46:32.575Z,99874.50
2022-08-19T05:49:37.820Z,99878.03
2022-08-19T05:52:43.708Z,99869.91
2022-08-19T05:55:48.812Z,99879.37
2022-08-19T05:58:51.450Z,99880.72
2022-08-19T06:01:56.584Z,99881.50
2022-08-19T06:04:59.514Z,99882.34
2022-08-19T06:08:02.116Z,99874.69
2022-08-19T06:11:33.579Z,99877.34
2022-08-19T06:14:40.313Z,99880.84
2022-08-19T06:17:47.554Z,99883.75
2022-08-19T06:20:56.009Z,99873.72
2022-08-19T06:23:59.754Z,99876.63
2022-08-19T06:27:02.603Z,99875.34
2022-08-19T06:30:06.402Z,99883.47
2022-08-19T06:33:09.297Z,99877.31
2022-08-19T06:36:32.354Z,99873.25
2022-08-19T06:39:39.214Z,99859.41
2022-08-19T06:42:50.236Z,99856.66
2022-08-19T06:45:58.231Z,99867.16
2022-08-19T06:49:02.293Z,99870.72
2022-08-19T06:52:06.676Z,99861.81
2022-08-19T06:55:10.238Z,99875.03
2022-08-19T06:58:12.961Z,99868.41
2022-08-19T07:01:16.273Z,99869.00
2022-08-19T07:04:22.077Z,99865.94
2022-08-19T07:07:25.122Z,99872.16
2022-08-19T07:10:27.708Z,99875.16
2022-08-19T07:13:30.676Z,99882.09
2022-08-19T07:16:33.295Z,99876.97
2022-08-19T07:19:36.351Z,99883.88
2022-08-19T07:22:40.249Z,99896.72
2022-08-19T07:25:43.567Z,99903.28
2022-08-19T07:28:51.550Z,99899.94
2022-08-19T07:31:57.452Z,99891.56
2022-08-19T07:35:04.353Z,99887.16
2022-08-19T07:38:07.404Z,99890.28
2022-08-19T07:41:15.127Z,99890.06
2022-08-19T07:44:21.145Z,99888.25
2022-08-19T07:47:48.354Z,99888.72
2022-08-19T07:50:46.620Z,99885.47
2022-08-19T07:53:51.685Z,99877.84
2022-08-19T07:56:54.795Z,99873.56
2022-08-19T07:59:58.351Z,99878.66
2022-08-19T08:03:01.093Z,99876.69
2022-08-19T08:06:22.885Z,99881.47
2022-08-19T08:09:35.131Z,99878.47
2022-08-19T08:12:42.401Z,99875.75
2022-08-19T08:15:45.718Z,99882.75
2022-08-19T08:18:50.495Z,99887.13
2022-08-19T08:21:58.833Z,99876.47
2022-08-19T08:25:08.645Z,99876.75
2022-08-19T08:28:17.536Z,99879.53
2022-08-19T08:31:21.138Z,99884.88
2022-08-19T08:34:23.949Z,99886.78
2022-08-19T08:37:27.145Z,99874.78
2022-08-19T08:40:54.455Z,99877.81
2022-08-19T08:43:58.403Z,99873.50
2022-08-19T08:47:05.235Z,99871.16
2022-08-19T08:50:19.408Z,99877.41
2022-08-19T08:53:29.228Z,99868.97
2022-08-19T08:56:32.854Z,99866.81
2022-08-19T08:59:38.578Z,99841.25
2022-08-19T09:02:43.522Z,99839.22
2022-08-19T09:05:51.889Z,99843.94
2022-08-19T09:09:42.083Z,99850.09
2022-08-19T09:13:15.757Z,99845.03
2022-08-19T09:16:21.995Z,99849.03
2022-08-19T09:19:31.829Z,99845.69
2022-08-19T09:22:40.474Z,99841.31
2022-08-19T09:25:43.204Z,99845.53
2022-08-19T09:28:49.040Z,99837.72
2022-08-19T09:31:51.640Z,99840.00
2022-08-19T09:34:59.051Z,99832.72
2022-08-19T09:38:02.955Z,99831.06
2022-08-19T09:41:08.841Z,99823.38
2022-08-19T09:44:14.298Z,99824.59
2022-08-19T09:47:23.522Z,99814.12
2022-08-19T09:50:29.203Z,99801.16
2022-08-19T09:53:32.239Z,99802.47
2022-08-19T09:56:38.187Z,99798.03
2022-08-19T09:59:41.280Z,99793.28
2022-08-19T10:02:45.691Z,99792.78
2022-08-19T10:05:55.223Z,99791.03
2022-08-19T10:08:58.266Z,99786.19
2022-08-19T10:12:04.501Z,99775.38
2022-08-19T10:15:09.360Z,99780.25
2022-08-19T10:18:12.507Z,99786.56
2022-08-19T10:21:19.659Z,99790.03
2022-08-19T10:24:25.304Z,99776.47
2022-08-19T10:27:28.002Z,99776.09
2022-08-19T10:30:40.566Z,99764.72
2022-08-19T10:33:53.353Z,99768.56
2022-08-19T10:37:00.869Z,99761.84
2022-08-19T10:40:08.555Z,99771.56
2022-08-19T10:43:11.369Z,99763.16
2022-08-19T10:46:17.004Z,99773.13
2022-08-19T10:49:23.907Z,99768.81
2022-08-19T10:52:38.795Z,99763.00
2022-08-19T10:56:00.677Z,99771.72
2022-08-19T10:59:07.253Z,99771.97
2022-08-19T11:02:13.107Z,99764.97
2022-08-19T11:05:18.306Z,99764.63
2022-08-19T11:08:23.874Z,99765.75
2022-08-19T11:11:27.605Z,99767.47
2022-08-19T11:14:34.743Z,99770.47
2022-08-19T11:17:37.407Z,99761.53
2022-08-19T11:20:40.698Z,99765.44
2022-08-19T11:23:44.292Z,99768.41
2022-08-19T11:26:55.037Z,99764.06
2022-08-19T11:29:58.059Z,99756.16
2022-08-19T11:33:02.017Z,99753.25
2022-08-19T11:36:07.113Z,99755.66
2022-08-19T11:39:14.937Z,99757.72
2022-08-19T11:42:50.555Z,99753.62
2022-08-19T11:45:55.176Z,99761.03
2022-08-19T11:49:01.439Z,99752.88
2022-08-19T11:52:04.457Z,99744.09
2022-08-19T11:55:08.148Z,99746.44
2022-08-19T11:58:18.915Z,99748.00
2022-08-19T12:01:23.441Z,99743.47
2022-08-19T12:04:26.301Z,99734.19
2022-08-19T12:07:30.105Z,99724.53
2022-08-19T12:10:34.479Z,99729.72
2022-08-19T12:13:37.727Z,99721.56
2022-08-19T12:16:44.809Z,99715.06
2022-08-19T12:19:54.791Z,99715.34
2022-08-19T12:22:57.928Z,99718.22
2022-08-19T12:26:03.312Z,99709.22
2022-08-19T12:29:06.393Z,99717.47
2022-08-19T12:32:12.733Z,99715.53
2022-08-19T12:35:18.750Z,99714.75
2022-08-19T12:38:25.220Z,99707.88
2022-08-19T12:41:28.113Z,99712.25
2022-08-19T12:44:32.934Z,99709.63
2022-08-19T12:47:41.574Z,99707.06
2022-08-19T12:50:47.997Z,99702.38
2022-08-19T12:53:51.018Z,99698.22
2022-08-19T12:56:53.657Z,99693.91
2022-08-19T12:59:56.823Z,99687.66
2022-08-19T13:03:00.679Z,99682.88
2022-08-19T13:06:04.235Z,99692.09
2022-08-19T13:09:06.739Z,99676.25
2022-08-19T13:12:14.056Z,99683.84
2022-08-19T13:15:23.726Z,99683.88
2022-08-19T13:18:28.488Z,99684.09
2022-08-19T13:21:32.496Z,99685.09
2022-08-19T13:24:37.872Z,99670.97
2022-08-19T13:27:47.516Z,99671.59
2022-08-19T13:31:11.099Z,99669.38
2022-08-19T13:34:15.100Z,99662.72
2022-08-19T13:37:38.265Z,99658.66
2022-08-19T13:40:41.800Z,99660.44
2022-08-19T13:43:44.690Z,99658.41
2022-08-19T13:46:53.979Z,99658.09
2022-08-19T13:49:57.096Z,99662.00
2022-08-19T13:53:00.767Z,99655.19
2022-08-19T13:56:10.333Z,99647.72
2022-08-19T13:59:13.372Z,99641.50
2022-08-19T14:02:18.357Z,99635.69
2022-08-19T14:05:21.969Z,99632.03
2022-08-19T14:08:25.391Z,99625.53
2022-08-19T14:11:30.400Z,99629.06
2022-08-19T14:14:33.536Z,99644.13
2022-08-19T14:17:42.735Z,99649.53
2022-08-19T14:20:45.937Z,99659.06
2022-08-19T14:23:48.785Z,99653.69
2022-08-19T14:26:53.497Z,99670.84
2022-08-19T14:29:58.071Z,99668.59
2022-08-19T14:33:03.077Z,99667.31
2022-08-19T14:36:07.714Z,99661.47
2022-08-19T14:39:11.183Z,99654.09
2022-08-19T14:42:15.517Z,99655.50
2022-08-19T14:45:18.993Z,99660.88
2022-08-19T14:48:22.579Z,99664.59
2022-08-19T14:51:32.925Z,99668.50
2022-08-19T14:54:35.882Z,99672.38
2022-08-19T14:57:41.806Z,99663.88
2022-08-19T15:00:44.710Z,99673.16
2022-08-19T15:03:48.615Z,99692.28
2022-08-19T15:06:51.934Z,99699.56
2022-08-19T15:09:55.018Z,99701.81
2022-08-19T15:12:57.982Z,99699.06
2022-08-19T15:16:00.974Z,99718.31
2022-08-19T15:19:03.873Z,99717.81
2022-08-19T15:22:06.491Z,99719.44
2022-08-19T15:25:11.884Z,99742.81
2022-08-19T15:28:16.395Z,99750.69
2022-08-19T15:31:28.071Z,99753.41
2022-08-19T15:34:32.467Z,99773.88
2022-08-19T15:37:37.010Z,99778.25
2022-08-19T15:40:42.354Z,99791.19
2022-08-19T15:43:45.189Z,99791.31
2022-08-19T15:46:49.019Z,99776.81
2022-08-19T15:49:58.908Z,99765.19
2022-08-19T15:53:11.230Z,99738.78
2022-08-19T15:56:15.184Z,99697.84
2022-08-19T15:59:36.437Z,99692.47
2022-08-19T16:03:08.383Z,99698.56
2022-08-19T16:06:26.337Z,99698.13
2022-08-19T16:09:31.057Z,99697.59
2022-08-19T16:12:35.935Z,99694.53
2022-08-19T16:15:39.980Z,99698.22
2022-08-19T16:18:42.963Z,99681.50
2022-08-19T16:21:49.122Z,99665.63
2022-08-19T16:24:52.910Z,99664.59
2022-08-19T16:28:07.845Z,99671.22
2022-08-19T16:31:13.559Z,99689.69
2022-08-19T16:34:16.225Z,99695.72
2022-08-19T16:37:19.428Z,99711.91
2022-08-19T16:40:23.996Z,99716.56
2022-08-19T16:43:28.770Z,99724.81
2022-08-19T16:46:31.544Z,99744.25
2022-08-19T16:49:54.191Z,99762.06
2022-08-19T16:52:58.887Z,99787.50
2022-08-19T16:56:01.922Z,99813.34
2022-08-19T16:59:04.804Z,99815.28
2022-08-19T17:02:08.408Z,99820.03
2022-08-19T17:05:12.930Z,99838.78
2022-08-19T17:08:19.134Z,99859.16
2022-08-19T17:11:24.397Z,99867.94
2022-08-19T17:14:30.999Z,99849.25
2022-08-19T17:17:37.441Z,99834.47
2022-08-19T17:20:47.045Z,99829.00
2022-08-19T17:23:51.178Z,99807.62
2022-08-19T17:26:54.850Z,99776.88
2022-08-19T17:30:00.233Z,99757.97
2022-08-19T17:33:06.016Z,99752.72
2022-08-19T17:36:10.969Z,99723.50
2022-08-19T17:39:16.987Z,99720.34
2022-08-19T17:42:20.313Z,99698.97
2022-08-19T17:45:23.721Z,99687.84
2022-08-19T17:48:27.710Z,99680.47
2022-08-19T17:51:34.038Z,99674.09
2022-08-19T17:54:41.218Z,99668.75
2022-08-19T17:57:46.803Z,99663.94
2022-08-19T18:00:55.298Z,99671.00
2022-08-19T18:03:58.491Z,99674.16
2022-08-19T18:07:05.839Z,99664.72
2022-08-19T18:10:12.426Z,99663.72
2022-08-19T18:13:17.222Z,99674.41
2022-08-19T18:16:22.133Z,99694.41
2022-08-19T18:19:31.519Z,99730.00
2022-08-19T18:22:47.552Z,99771.72
2022-08-19T18:25:50.368Z,99838.12
2022-08-19T18:28:54.203Z,99853.69
2022-08-19T18:31:57.827Z,99835.25
2022-08-19T18:35:03.747Z,99839.22
2022-08-19T18:38:26.400Z,99868.75
2022-08-19T18:41:47.581Z,99922.38
2022-08-19T18:45:08.882Z,99965.38
2022-08-19T18:48:31.152Z,99989.84
2022-08-19T18:51:34.318Z,100004.62
2022-08-19T18:54:37.315Z,99989.69
2022-08-19T18:57:39.807Z,99980.34
2022-08-19T19:00:44.154Z,99967.66
2022-08-19T19:03:50.998Z,99978.66
2022-08-19T19:06:54.612Z,99954.31
2022-08-19T19:09:57.185Z,99928.97
2022-08-19T19:13:01.345Z,99905.31
2022-08-19T19:16:04.531Z,99891.94
2022-08-19T19:19:08.047Z,99888.34
2022-08-19T19:22:18.817Z,99873.31
2022-08-19T19:25:21.696Z,99868.22
2022-08-19T19:28:27.532Z,99850.38
2022-08-19T19:31:33.391Z,99849.56
2022-08-19T19:34:38.551Z,99859.34
2022-08-19T19:37:43.384Z,99855.00
2022-08-19T19:40:46.057Z,99839.25
2022-08-19T19:44:09.998Z,99847.38
2022-08-19T19:47:16.506Z,99843.34
2022-08-19T19:50:19.735Z,99822.72
2022-08-19T19:53:26.251Z,99807.94
2022-08-19T19:56:29.053Z,99814.41
2022-08-19T19:59:32.846Z,99828.22
2022-08-19T20:02:35.815Z,99823.44
2022-08-19T20:05:41.307Z,99811.59
2022-08-19T20:09:02.592Z,99819.34
2022-08-19T20:12:05.584Z,99820.88
2022-08-19T20:15:08.878Z,99856.72
2022-08-19T20:18:14.354Z,100065.16
2022-08-19T20:21:17.248Z,100058.72
2022-08-19T20:24:28.057Z,100078.78
2022-08-19T20:27:31.258Z,100101.06
2022-08-19T20:30:46.415Z,100088.06
2022-08-19T20:33:50.718Z,100089.47
2022-08-19T20:36:53.552Z,100097.87
2022-08-19T20:39:56.114Z,100103.53
2022-08-19T20:42:58.942Z,100109.44
2022-08-19T20:46:04.340Z,100133.38
2022-08-19T20:49:08.163Z,100131.03
2022-08-19T20:52:10.873Z,100119.97
2022-08-19T20:55:13.743Z,100130.81
2022-08-19T20:58:18.816Z,100164.09
2022-08-19T21:01:22.135Z,100159.97
2022-08-19T21:04:24.864Z,100155.53
2022-08-19T21:07:38.951Z,100133.78
2022-08-19T21:10:42.557Z,100137.41
2022-08-19T21:13:45.373Z,100106.72
2022-08-19T21:16:49.298Z,100091.66
2022-08-19T21:19:52.154Z,100106.50
2022-08-19T21:22:54.722Z,100092.00
2022-08-19T21:25:59.216Z,100069.59
2022-08-19T21:29:01.744Z,100035.97
2022-08-19T21:32:05.210Z,100021.66
2022-08-19T21:35:08.093Z,100012.12
2022-08-19T21:38:10.852Z,99988.50
2022-08-19T21:41:13.402Z,99977.72
2022-08-19T21:44:16.158Z,99989.75
2022-08-19T21:47:18.768Z,99999.31
2022-08-19T21:50:23.900Z,99979.91
2022-08-19T21:53:34.102Z,99956.56
2022-08-19T21:56:42.256Z,99950.53
2022-08-19T21:59:44.852Z,99941.22
2022-08-19T22:02:47.677Z,99932.66
2022-08-19T22:05:50.862Z,99906.28
2022-08-19T22:08:56.653Z,99907.47
2022-08-19T22:11:59.674Z,99900.53
2022-08-19T22:15:02.444Z,99901.78
2022-08-19T22:18:06.033Z,99918.84
2022-08-19T22:21:12.019Z,99916.84
2022-08-19T22:24:15.055Z,99902.19
2022-08-19T22:27:17.632Z,99871.06
2022-08-19T22:30:22.279Z,99840.75
2022-08-19T22:33:27.648Z,99830.41
2022-08-19T22:36:35.453Z,99836.62
2022-08-19T22:39:38.030Z,99847.25
2022-08-19T22:42:40.917Z,99821.84
2022-08-19T22:45:44.894Z,99809.91
2022-08-19T22:48:49.472Z,99822.81
2022-08-19T22:52:19.320Z,99808.78
2022-08-19T22:55:22.193Z,99803.03
2022-08-19T22:58:28.311Z,99805.41
2022-08-19T23:01:31.244Z,99815.66
2022-08-19T23:04:34.787Z,99816.19
2022-08-19T23:07:38.116Z,99781.69
2022-08-19T23:10:40.764Z,99768.59
2022-08-19T23:13:43.751Z,99781.50
2022-08-19T23:16:50.838Z,99783.31
2022-08-19T23:19:53.950Z,99786.00
2022-08-19T23:22:57.559Z,99794.41
2022-08-19T23:26:00.302Z,99796.53
2022-08-19T23:29:22.394Z,99800.53
2022-08-19T23:32:25.557Z,99804.53
2022-08-19T23:35:34.010Z,99787.97
2022-08-19T23:38:36.776Z,99790.00
2022-08-19T23:41:39.228Z,99791.66
2022-08-19T23:44:51.897Z,99789.16
2022-08-19T23:47:57.893Z,99790.06
2022-08-19T23:51:03.881Z,99776.66
2022-08-19T23:54:06.818Z,99781.41
2022-08-19T23:57:13.746Z,99779.34
